Aeroporto :
LOGIN :

Iscrizione | Disclaimer

   EN    FR    IT 

 










Sommario :    VFR   VFR Marginale   IFR   IFR Intensivo   IFR Molto Intensivo
Visibilità : 
Base nubi : 
>= 8 km
>= 3000ft
5 / 8 km
1000 / 3000 ft
1500m / 5 km
500 / 1000 ft
800 / 1500m
200 / 500 ft
< 800m
< 200 ft
Simboli :   Temporali  Nebbia  Neve Forte  Precipitazioni Forti  Vento > 20 kt
SIGMETs :   Varie  Temporali  Ghiacco  Turbolenza  Onda orograficha  Ceneri Vulcaniche







- Altitudine del aeroporto : 112 ft
- Codice IATA : SVQ


LEZL - Sevilla San Pablo

ULTIMO METAR :
  • 231600Z 03003KT 9999 FEW040 25/15 Q1023 NOSIG

METARs OBSOLETI :
  • 231530Z 05004KT 020V090 9999 FEW040 25/16 Q1023 NOSIG
  • 231500Z 02003KT 340V060 9999 FEW040 25/15 Q1023 NOSIG
  • 231430Z 02003KT 320V070 9999 FEW040 24/16 Q1023 NOSIG
  • 231400Z 03003KT 340V080 9999 FEW040 25/16 Q1023 NOSIG
  • 231330Z 02004KT 330V080 9999 FEW040 24/16 Q1023 NOSIG

TAF TAF LEZL
Valido dal 23 a 15 ore il 24 a 15 ore UTC


231400Z 2315/2415 05005KT 9999 FEW040 TX26/2415Z TN16/2406Z
PROB30
TEMPO 2315/2318 4000 SHRA SCT035TCU
Nessun NOTAM noto per questo aeroporto.



MetMap, La meteo Aeronautica in un colpo d'occhio ! - Copyright ORBIFLY Dicembre 2007 - Disclaimer

ORBIFLY MET'MAP TEAM :

Programmazione e sviluppo : Alexandra Zaïnal
Concezione e sviluppo : Baudouin d'Aumeries
Co-Programmazione e sviluppo : Marc-Olivier Méhu
Supporto tecnico e logistico : Manuel Goepfert
Aiuto per la traduzione : Arnaldo La Scala

Contatto : metmap@orbifly.com




FONTI E CREDITI :

   NOAA